Time;durP1;ratioP1;P1;durP2;ratioP2;P2;SDS_P1;SDS_P2;PMS_P1;PMS_P2;Temp;Humidity;BMP_temperature;BMP_pressure;BME280_temperature;BME280_humidity;BME280_pressure;Samples;Min_cycle;Max_cycle;Signal;HPM_P1;HPM_P2
2021/07/17 00:00:36;;;;;;;6.72;5.20;;;;;;;20.98;91.55;96603.72;4976333;28;20227;-71
2021/07/17 00:03:04;;;;;;;7.25;5.32;;;;;;;20.98;91.37;96603.72;4977219;28;20203;-72
2021/07/17 00:05:32;;;;;;;6.68;4.90;;;;;;;20.98;91.74;96604.53;4976798;28;20257;-72
2021/07/17 00:07:58;;;;;;;9.20;5.90;;;;;;;20.84;93.34;96613.03;4975968;28;20207;-72
2021/07/17 00:10:27;;;;;;;9.52;4.93;;;;;;;20.91;92.24;96608.34;4976686;28;20231;-72
2021/07/17 00:12:55;;;;;;;8.30;4.85;;;;;;;21.02;90.52;96611.06;4977058;28;20223;-72
2021/07/17 00:15:24;;;;;;;6.30;4.60;;;;;;;20.93;91.14;96606.28;4976660;28;20223;-70
2021/07/17 00:17:50;;;;;;;4.60;3.95;;;;;;;20.95;89.86;96602.31;4976250;28;20203;-72
2021/07/17 00:20:17;;;;;;;5.82;3.92;;;;;;;20.92;89.82;96594.72;4976463;28;20231;-71
2021/07/17 00:22:44;;;;;;;7.57;4.93;;;;;;;20.89;90.43;96595.19;4976359;28;20199;-72
2021/07/17 00:25:14;;;;;;;5.32;4.13;;;;;;;21.04;89.77;96592.88;4976633;28;20214;-72
2021/07/17 00:27:41;;;;;;;8.88;5.00;;;;;;;20.83;90.97;96605.22;4976921;28;20204;-71
2021/07/17 00:30:10;;;;;;;5.30;4.32;;;;;;;21.00;90.50;96594.41;4976374;28;20578;-70
2021/07/17 00:32:37;;;;;;;5.97;4.32;;;;;;;20.91;90.60;96598.47;4975829;28;20799;-71
2021/07/17 00:35:04;;;;;;;12.65;5.07;;;;;;;20.89;91.55;96605.91;4976481;28;20227;-70
2021/07/17 00:37:31;;;;;;;6.22;4.28;;;;;;;20.95;90.99;96605.00;4976330;28;20207;-72
2021/07/17 00:39:57;;;;;;;10.05;4.90;;;;;;;20.95;90.67;96604.16;4976136;28;20254;-71
2021/07/17 00:42:23;;;;;;;8.75;5.03;;;;;;;20.80;92.08;96600.31;4976292;28;20234;-71
2021/07/17 00:44:50;;;;;;;9.40;6.15;;;;;;;20.77;93.08;96598.09;4976676;28;20563;-71
2021/07/17 00:47:18;;;;;;;6.60;5.55;;;;;;;20.83;93.02;96599.88;4972406;28;20203;-72
2021/07/17 00:49:45;;;;;;;9.73;5.80;;;;;;;20.87;92.01;96599.16;4976016;28;20226;-72
2021/07/17 00:52:11;;;;;;;8.43;6.07;;;;;;;20.82;91.61;96601.72;4976407;28;20203;-72
2021/07/17 00:54:40;;;;;;;10.18;5.93;;;;;;;20.92;91.72;96599.28;4976360;28;20223;-71
2021/07/17 00:57:07;;;;;;;8.05;6.15;;;;;;;20.83;91.20;96599.88;4975567;28;20211;-72
2021/07/17 00:59:35;;;;;;;7.47;6.30;;;;;;;20.76;92.37;96599.16;4976715;28;20227;-71
2021/07/17 01:02:03;;;;;;;10.70;6.50;;;;;;;20.75;93.18;96608.22;4975499;28;20203;-71
2021/07/17 01:04:32;;;;;;;9.73;5.70;;;;;;;20.95;91.73;96593.44;4974935;28;20294;-72
2021/07/17 01:06:59;;;;;;;9.07;5.90;;;;;;;20.79;92.32;96598.69;4975673;28;20199;-71
2021/07/17 01:09:26;;;;;;;8.52;5.97;;;;;;;20.59;93.81;96595.47;4976161;28;20312;-72
2021/07/17 01:11:53;;;;;;;10.07;5.93;;;;;;;20.54;94.16;96600.69;4975601;28;20210;-71
2021/07/17 01:14:19;;;;;;;7.90;5.78;;;;;;;20.64;93.50;96595.59;4976027;28;20231;-72
2021/07/17 01:16:47;;;;;;;8.65;6.45;;;;;;;20.64;94.31;96587.56;4975722;28;20215;-71
2021/07/17 01:19:13;;;;;;;9.90;5.88;;;;;;;20.63;93.73;96583.25;4975230;28;20226;-71
2021/07/17 01:21:41;;;;;;;9.50;7.35;;;;;;;20.66;94.32;96582.78;4975220;28;20208;-72
2021/07/17 01:24:07;;;;;;;12.00;6.35;;;;;;;20.59;92.75;96588.25;4976100;28;20211;-71
2021/07/17 01:26:34;;;;;;;9.13;5.63;;;;;;;20.58;92.39;96588.47;4975746;28;20207;-71
2021/07/17 01:29:00;;;;;;;7.93;5.82;;;;;;;20.50;91.86;96583.47;4975191;28;21923;-72
2021/07/17 01:31:28;;;;;;;8.00;5.57;;;;;;;20.48;92.16;96589.06;4975149;28;20203;-72
2021/07/17 01:33:54;;;;;;;7.75;5.35;;;;;;;20.40;92.09;96588.56;4975674;28;20318;-72
2021/07/17 01:36:21;;;;;;;10.52;5.90;;;;;;;20.47;91.10;96590.09;4975608;28;20203;-72
2021/07/17 01:38:48;;;;;;;8.70;5.80;;;;;;;20.37;92.59;96581.00;4975537;28;20218;-72
2021/07/17 01:41:16;;;;;;;10.65;6.75;;;;;;;20.26;93.90;96595.16;4975511;28;20314;-72
2021/07/17 01:43:43;;;;;;;12.60;6.45;;;;;;;20.22;94.38;96585.94;4975156;28;20207;-72
2021/07/17 01:46:09;;;;;;;10.95;6.65;;;;;;;20.42;92.75;96591.84;4973015;28;20570;-72
2021/07/17 01:48:36;;;;;;;9.23;6.82;;;;;;;20.37;91.82;96589.03;4974961;28;20305;-71
2021/07/17 01:51:03;;;;;;;9.10;5.15;;;;;;;20.40;90.53;96594.75;4974728;28;20231;-71
2021/07/17 01:53:29;;;;;;;7.75;6.35;;;;;;;20.35;91.06;96588.44;4975148;28;20212;-72
2021/07/17 01:55:57;;;;;;;10.98;5.75;;;;;;;20.40;91.53;96593.91;4975607;28;20423;-72
2021/07/17 01:58:24;;;;;;;14.65;6.35;;;;;;;20.31;91.30;96592.63;4974147;28;20228;-72
2021/07/17 02:00:50;;;;;;;13.32;8.35;;;;;;;20.21;93.97;96595.84;4975588;28;20227;-72
2021/07/17 02:03:16;;;;;;;16.58;9.88;;;;;;;20.27;94.75;96594.13;4975061;28;20219;-72
2021/07/17 02:05:43;;;;;;;13.43;8.93;;;;;;;20.37;93.88;96594.38;4975192;28;20203;-71
2021/07/17 02:08:12;;;;;;;12.05;7.75;;;;;;;20.58;93.04;96596.53;4974393;28;20207;-72
2021/07/17 02:10:39;;;;;;;13.52;6.85;;;;;;;20.48;92.96;96585.56;4975045;28;20227;-71
2021/07/17 02:13:08;;;;;;;11.63;8.63;;;;;;;20.68;92.73;96599.44;4974901;28;20636;-71
2021/07/17 02:15:41;;;;;;;18.77;11.45;;;;;;;20.57;94.33;96589.53;4975860;28;20223;-71
2021/07/17 02:18:14;;;;;;;21.67;14.23;;;;;;;20.51;96.14;96590.47;4978412;28;20214;-71
2021/07/17 02:20:41;;;;;;;20.90;14.43;;;;;;;20.42;97.04;96589.16;4975382;28;20215;-72
2021/07/17 02:23:08;;;;;;;21.80;12.13;;;;;;;20.57;95.31;96589.53;4978282;28;20203;-72
2021/07/17 02:25:34;;;;;;;20.27;12.02;;;;;;;20.53;94.25;96599.91;4978536;28;20208;-73
2021/07/17 02:28:01;;;;;;;14.00;10.13;;;;;;;20.61;92.96;96585.34;4977359;28;20203;-72
2021/07/17 02:30:29;;;;;;;19.77;12.60;;;;;;;20.70;93.98;96597.38;4978391;28;20231;-71
2021/07/17 02:32:55;;;;;;;19.33;10.65;;;;;;;20.67;93.64;96595.13;4978664;28;20222;-71
2021/07/17 02:35:22;;;;;;;18.10;10.50;;;;;;;20.65;93.75;96591.88;4977817;28;20235;-72
2021/07/17 02:37:48;;;;;;;18.48;13.30;;;;;;;20.61;95.87;96590.69;4977453;28;20211;-72
2021/07/17 02:40:15;;;;;;;15.80;9.63;;;;;;;20.70;93.72;96584.78;4978295;28;20219;-73
2021/07/17 02:42:42;;;;;;;19.50;13.38;;;;;;;20.61;95.58;96585.34;4977554;28;20222;-72
2021/07/17 02:45:11;;;;;;;17.55;13.43;;;;;;;20.67;96.16;96574.53;4975661;28;20199;-71
2021/07/17 02:47:38;;;;;;;20.45;11.82;;;;;;;20.84;93.70;96587.03;4977371;28;20211;-72
2021/07/17 02:50:07;;;;;;;21.77;12.02;;;;;;;20.81;93.50;96580.53;4977892;28;20234;-72
2021/07/17 02:52:33;;;;;;;13.73;9.82;;;;;;;20.55;93.55;96586.28;4977366;28;20200;-72
2021/07/17 02:55:00;;;;;;;20.42;12.60;;;;;;;20.58;94.04;96583.97;4977803;28;20617;-73
2021/07/17 02:57:27;;;;;;;21.83;14.68;;;;;;;20.65;95.22;96581.19;4978227;28;20203;-72
2021/07/17 02:59:53;;;;;;;26.48;15.27;;;;;;;20.74;95.44;96580.63;4977237;28;20233;-72
2021/07/17 03:02:20;;;;;;;19.90;14.50;;;;;;;20.80;95.38;96576.19;4977915;28;20204;-72
2021/07/17 03:04:48;;;;;;;24.83;13.20;;;;;;;20.99;94.20;96583.91;4977795;28;20208;-71
2021/07/17 03:07:14;;;;;;;19.50;13.90;;;;;;;20.88;95.42;96584.72;4977193;28;20207;-71
2021/07/17 03:09:41;;;;;;;23.10;13.68;;;;;;;20.90;95.09;96580.75;4977356;28;20296;-71
2021/07/17 03:12:08;;;;;;;24.17;14.18;;;;;;;20.97;94.93;96586.81;4978088;28;20211;-72
2021/07/17 03:14:34;;;;;;;29.95;14.90;;;;;;;20.97;95.45;96589.50;4977230;28;20609;-73
2021/07/17 03:17:01;;;;;;;23.77;14.38;;;;;;;21.07;95.78;96591.59;4977018;28;20663;-72
2021/07/17 03:19:27;;;;;;;23.58;15.07;;;;;;;21.04;95.89;96592.06;4977199;28;20227;-71
2021/07/17 03:21:55;;;;;;;27.55;15.80;;;;;;;21.12;95.47;96587.16;4977937;28;20211;-72
2021/07/17 03:24:22;;;;;;;29.73;16.90;;;;;;;21.00;95.57;96597.09;4977538;28;20222;-71
2021/07/17 03:26:48;;;;;;;23.88;15.70;;;;;;;20.95;95.91;96588.94;4976600;28;20218;-72
2021/07/17 03:29:15;;;;;;;27.83;16.08;;;;;;;20.88;96.22;96593.56;4977114;28;20222;-72
2021/07/17 03:31:41;;;;;;;22.35;16.55;;;;;;;20.93;96.05;96584.84;4977519;28;20203;-72
2021/07/17 03:34:08;;;;;;;26.33;16.45;;;;;;;20.89;97.04;96589.84;4977376;28;20683;-73
2021/07/17 03:36:34;;;;;;;28.25;16.42;;;;;;;20.90;97.73;96596.84;4977055;28;20246;-72
2021/07/17 03:39:02;;;;;;;25.52;16.33;;;;;;;21.05;97.66;96599.88;4977072;28;20203;-72
2021/07/17 03:41:28;;;;;;;25.90;16.70;;;;;;;20.98;97.80;96593.81;4976611;28;20725;-72
2021/07/17 03:43:55;;;;;;;27.77;17.05;;;;;;;20.97;97.90;96600.22;4977246;28;20668;-73
2021/07/17 03:46:21;;;;;;;27.52;16.75;;;;;;;20.90;98.59;96602.19;4974192;28;20203;-72
2021/07/17 03:48:48;;;;;;;26.42;16.95;;;;;;;21.01;97.27;96603.25;4976194;28;20207;-71
2021/07/17 03:51:14;;;;;;;26.95;17.45;;;;;;;21.09;97.62;96598.38;4977145;28;20230;-71
2021/07/17 03:53:41;;;;;;;28.02;16.77;;;;;;;21.13;96.58;96604.88;4977699;28;20270;-72
2021/07/17 03:56:08;;;;;;;25.83;17.65;;;;;;;21.15;97.72;96610.00;4976374;28;20233;-72
2021/07/17 03:58:35;;;;;;;28.67;17.63;;;;;;;21.11;97.53;96608.84;4975897;28;20203;-71
2021/07/17 04:01:01;;;;;;;26.92;18.13;;;;;;;20.92;96.99;96610.81;4977903;28;20219;-72
2021/07/17 04:03:28;;;;;;;25.25;17.17;;;;;;;21.08;96.51;96614.69;4976776;28;20210;-72
2021/07/17 04:05:54;;;;;;;27.33;17.25;;;;;;;21.13;95.88;96618.28;4976828;28;20210;-71
2021/07/17 04:08:21;;;;;;;27.33;17.95;;;;;;;21.16;96.31;96623.19;4976466;28;20593;-73
2021/07/17 04:10:47;;;;;;;26.98;17.10;;;;;;;21.18;96.03;96615.72;4976727;28;20227;-72
2021/07/17 04:13:15;;;;;;;29.83;17.83;;;;;;;21.35;95.62;96626.56;4976495;28;20214;-72
2021/07/17 04:15:41;;;;;;;29.02;18.25;;;;;;;21.34;96.43;96625.75;4977161;28;20242;-72
2021/07/17 04:18:08;;;;;;;31.02;18.63;;;;;;;21.35;96.13;96630.06;4975993;28;20222;-72
2021/07/17 04:20:35;;;;;;;29.58;18.73;;;;;;;21.42;95.85;96633.41;4976511;28;20219;-71
2021/07/17 04:23:02;;;;;;;31.88;18.85;;;;;;;21.23;96.75;96634.63;4976873;28;21029;-71
2021/07/17 04:25:28;;;;;;;30.70;19.35;;;;;;;21.34;96.58;96636.47;4976725;28;20739;-72
2021/07/17 04:27:55;;;;;;;34.30;19.33;;;;;;;21.16;97.87;96633.91;4975376;28;21022;-71
2021/07/17 04:30:23;;;;;;;36.17;19.95;;;;;;;21.27;97.85;96634.94;4976852;28;20711;-72
2021/07/17 04:32:49;;;;;;;31.75;19.48;;;;;;;21.06;98.31;96633.66;4976223;28;20210;-72
2021/07/17 04:35:16;;;;;;;34.65;20.35;;;;;;;21.01;98.28;96635.41;4976775;28;20227;-72
2021/07/17 04:37:42;;;;;;;33.75;19.45;;;;;;;20.75;99.66;96637.69;4976017;28;20223;-72
2021/07/17 04:40:10;;;;;;;35.25;20.88;;;;;;;20.71;100.00;96649.88;4976587;28;20227;-73
2021/07/17 04:42:36;;;;;;;40.15;21.70;;;;;;;20.91;99.26;96646.72;4975523;28;20211;-71
2021/07/17 04:45:04;;;;;;;38.75;22.23;;;;;;;20.72;100.00;96649.66;4974560;28;20209;-72
2021/07/17 04:47:32;;;;;;;38.83;21.73;;;;;;;20.84;100.00;96653.22;4973981;28;20667;-72
2021/07/17 04:50:02;;;;;;;43.45;21.90;;;;;;;20.37;100.00;96658.63;4975891;28;20742;-72
2021/07/17 04:52:28;;;;;;;38.85;21.55;;;;;;;20.56;100.00;96655.66;4976112;28;20226;-72
2021/07/17 04:54:55;;;;;;;39.78;21.60;;;;;;;20.61;100.00;96655.81;4976419;28;20208;-72
2021/07/17 04:57:21;;;;;;;42.92;22.63;;;;;;;20.50;100.00;96647.72;4975113;28;20207;-71
2021/07/17 04:59:48;;;;;;;39.28;21.95;;;;;;;20.60;100.00;96659.50;4975898;28;20246;-71
2021/07/17 05:02:14;;;;;;;40.03;22.02;;;;;;;20.66;100.00;96655.09;4975962;28;20757;-72
2021/07/17 05:04:42;;;;;;;38.30;21.20;;;;;;;20.91;100.00;96656.59;4975985;28;20694;-72
2021/07/17 05:07:09;;;;;;;40.65;21.70;;;;;;;20.83;100.00;96650.78;4975322;28;21234;-73
2021/07/17 05:09:35;;;;;;;38.65;22.17;;;;;;;20.83;100.00;96655.06;4976767;28;20579;-72
2021/07/17 05:12:01;;;;;;;44.60;22.42;;;;;;;20.75;100.00;96653.75;4976326;28;20737;-71
2021/07/17 05:14:28;;;;;;;44.92;22.27;;;;;;;20.66;100.00;96649.75;4976967;28;20211;-71
2021/07/17 05:16:54;;;;;;;41.10;22.20;;;;;;;20.77;100.00;96643.63;4978187;28;20234;-71
2021/07/17 05:19:21;;;;;;;39.50;21.98;;;;;;;20.81;100.00;96644.81;4976363;28;20238;-72
2021/07/17 05:21:48;;;;;;;43.28;21.65;;;;;;;20.64;100.00;96641.94;4977010;28;20210;-71
2021/07/17 05:24:15;;;;;;;40.58;21.92;;;;;;;20.80;100.00;96644.00;4976670;28;20211;-72
2021/07/17 05:26:41;;;;;;;42.60;21.67;;;;;;;20.94;100.00;96646.22;4977429;28;20195;-72
2021/07/17 05:29:08;;;;;;;42.75;21.63;;;;;;;21.18;98.73;96645.22;4976271;28;20237;-70
2021/07/17 05:31:34;;;;;;;38.10;21.42;;;;;;;20.93;99.58;96649.94;4977271;28;20204;-72
2021/07/17 05:34:01;;;;;;;43.08;21.95;;;;;;;21.14;98.70;96645.91;4976805;28;20212;-69
2021/07/17 05:36:27;;;;;;;37.63;21.30;;;;;;;20.82;100.00;96643.78;4977244;28;20219;-72
2021/07/17 05:38:55;;;;;;;39.72;22.25;;;;;;;20.78;100.00;96645.28;4975270;28;20563;-72
2021/07/17 05:41:21;;;;;;;48.50;24.25;;;;;;;20.99;99.40;96646.38;4977288;28;20223;-69
2021/07/17 05:43:48;;;;;;;38.63;21.65;;;;;;;20.70;100.00;96642.91;4977080;28;20671;-69
2021/07/17 05:46:15;;;;;;;45.38;22.33;;;;;;;20.91;99.79;96641.34;4973405;28;20695;-72
2021/07/17 05:48:41;;;;;;;41.80;21.67;;;;;;;21.04;99.26;96643.81;4976385;28;20218;-71
2021/07/17 05:51:07;;;;;;;41.78;22.70;;;;;;;21.06;99.10;96648.94;4976180;28;20211;-71
2021/07/17 05:53:34;;;;;;;43.95;22.17;;;;;;;20.96;98.94;96652.19;4976972;28;20214;-72
2021/07/17 05:56:02;;;;;;;41.42;21.17;;;;;;;20.89;100.00;96647.97;4976512;28;20247;-72
2021/07/17 05:58:28;;;;;;;41.85;22.27;;;;;;;21.03;99.08;96654.75;4976211;28;20203;-71
2021/07/17 06:00:55;;;;;;;43.83;21.95;;;;;;;20.96;99.12;96641.47;4976513;28;20632;-72
2021/07/17 06:03:21;;;;;;;38.17;22.13;;;;;;;20.91;99.43;96645.88;4976522;28;20207;-70
2021/07/17 06:05:48;;;;;;;39.67;21.10;;;;;;;20.72;100.00;96646.16;4976568;28;20199;-72
2021/07/17 06:08:14;;;;;;;44.45;21.33;;;;;;;20.79;100.00;96647.72;4974363;28;20218;-77
2021/07/17 06:10:41;;;;;;;41.00;20.40;;;;;;;20.70;100.00;96650.94;4974518;28;20223;-77
2021/07/17 06:13:08;;;;;;;44.60;20.77;;;;;;;20.91;99.87;96662.78;4975375;28;20216;-77
2021/07/17 06:15:35;;;;;;;43.53;20.80;;;;;;;21.03;99.08;96663.59;4974674;28;20227;-78
2021/07/17 06:18:01;;;;;;;45.65;21.45;;;;;;;21.01;99.63;96659.53;4974356;28;20350;-77
2021/07/17 06:20:28;;;;;;;38.08;19.95;;;;;;;21.15;98.83;96658.25;4974784;28;20597;-77
2021/07/17 06:22:54;;;;;;;42.33;20.75;;;;;;;21.15;98.37;96659.06;4975624;28;20207;-77
2021/07/17 06:25:21;;;;;;;40.30;19.50;;;;;;;21.21;98.03;96663.50;4974919;28;20584;-78
2021/07/17 06:27:47;;;;;;;42.13;20.27;;;;;;;21.19;98.18;96668.28;4974255;28;20199;-77
2021/07/17 06:30:16;;;;;;;37.20;18.60;;;;;;;21.38;96.94;96672.47;4974506;28;20230;-77
2021/07/17 06:32:43;;;;;;;33.25;18.58;;;;;;;21.19;97.84;96668.28;4974441;28;20199;-80
2021/07/17 06:35:10;;;;;;;33.85;18.27;;;;;;;21.22;97.99;96670.50;4974158;28;20214;-77
2021/07/17 06:37:40;;;;;;;34.97;17.45;;;;;;;21.15;97.38;96669.78;4974514;28;20204;-77
2021/07/17 06:40:08;;;;;;;33.30;18.10;;;;;;;21.13;98.03;96671.06;4974654;28;20276;-78
2021/07/17 06:42:40;;;;;;;30.65;17.17;;;;;;;21.42;97.39;96681.69;4974429;28;20257;-78
2021/07/17 06:45:08;;;;;;;32.70;17.83;;;;;;;21.31;97.77;96681.69;4971970;28;20199;-79
2021/07/17 06:47:35;;;;;;;28.00;16.35;;;;;;;21.30;97.49;96678.19;4973161;28;20207;-77
2021/07/17 06:50:02;;;;;;;28.13;16.42;;;;;;;21.25;96.61;96675.41;4974315;28;20483;-77
2021/07/17 06:52:29;;;;;;;27.60;13.73;;;;;;;20.68;99.56;96683.28;4974637;28;20203;-78
2021/07/17 06:54:55;;;;;;;29.13;14.80;;;;;;;21.08;99.42;96679.00;4974228;28;20200;-78
2021/07/17 06:57:21;;;;;;;26.30;14.10;;;;;;;21.10;99.21;96685.75;4973380;28;20234;-77
2021/07/17 06:59:48;;;;;;;27.13;13.95;;;;;;;21.34;98.05;96687.41;4974187;28;20234;-77
2021/07/17 07:02:14;;;;;;;20.75;12.93;;;;;;;20.99;99.00;96691.91;4974781;28;20211;-78
2021/07/17 07:04:42;;;;;;;22.10;12.63;;;;;;;20.99;98.45;96685.72;4978169;28;20203;-77
2021/07/17 07:07:09;;;;;;;23.27;13.10;;;;;;;21.04;98.67;96686.69;4976796;28;20203;-76
2021/07/17 07:09:35;;;;;;;23.55;12.95;;;;;;;21.17;97.00;96683.78;4978539;28;20695;-75
2021/07/17 07:12:02;;;;;;;19.05;12.20;;;;;;;21.46;96.51;96685.56;4977560;28;20215;-75
2021/07/17 07:14:28;;;;;;;23.25;12.82;;;;;;;21.49;96.05;96682.41;4978509;28;20274;-75
2021/07/17 07:16:55;;;;;;;27.15;13.73;;;;;;;21.55;95.48;96689.56;4978754;28;20583;-75
2021/07/17 07:19:21;;;;;;;22.85;12.50;;;;;;;21.27;96.50;96684.03;4977410;28;20279;-75
2021/07/17 07:21:50;;;;;;;20.23;11.80;;;;;;;21.36;95.90;96688.00;4977738;28;20218;-75
2021/07/17 07:24:17;;;;;;;21.40;12.85;;;;;;;21.29;95.61;96686.47;4978521;28;20203;-75
2021/07/17 07:26:43;;;;;;;18.80;12.18;;;;;;;21.51;94.82;96686.50;4976704;28;20199;-75
2021/07/17 07:29:10;;;;;;;20.15;11.68;;;;;;;21.41;95.12;96690.81;4977282;28;20230;-75
2021/07/17 07:31:36;;;;;;;18.95;11.70;;;;;;;21.42;95.10;96690.56;4977375;28;20545;-75
2021/07/17 07:34:03;;;;;;;20.65;11.63;;;;;;;21.36;95.24;96692.53;4977995;28;20217;-75
2021/07/17 07:36:29;;;;;;;24.33;11.48;;;;;;;21.57;94.15;96684.75;4976736;28;20262;-75
2021/07/17 07:38:57;;;;;;;18.05;11.25;;;;;;;21.69;93.98;96680.19;4976387;28;20762;-75
2021/07/17 07:41:24;;;;;;;22.15;11.00;;;;;;;21.27;94.48;96693.91;4977485;28;20227;-76
2021/07/17 07:43:50;;;;;;;19.00;10.30;;;;;;;21.20;95.06;96685.19;4977252;28;20199;-70
2021/07/17 07:46:17;;;;;;;22.67;10.75;;;;;;;21.55;94.63;96689.56;4974185;28;20204;-72
2021/07/17 07:48:43;;;;;;;19.80;10.55;;;;;;;20.92;97.71;96693.88;4976506;28;20211;-70
2021/07/17 07:51:10;;;;;;;20.75;11.32;;;;;;;21.24;97.27;96697.88;4977135;28;20211;-72
2021/07/17 07:53:36;;;;;;;19.30;10.80;;;;;;;21.44;96.31;96693.00;4977880;28;20203;-72
2021/07/17 07:56:05;;;;;;;19.30;11.10;;;;;;;21.39;95.96;96690.22;4978505;28;20242;-72
2021/07/17 07:58:31;;;;;;;18.98;11.48;;;;;;;21.48;96.85;96691.50;4977970;28;20203;-70
2021/07/17 08:00:58;;;;;;;16.45;10.57;;;;;;;21.38;95.99;96690.44;4978320;28;20234;-70
2021/07/17 08:03:25;;;;;;;19.25;11.57;;;;;;;21.48;95.92;96696.84;4978794;28;20204;-70
2021/07/17 08:05:51;;;;;;;20.50;11.35;;;;;;;21.62;95.63;96703.66;4978576;28;20215;-72
2021/07/17 08:08:18;;;;;;;18.13;10.18;;;;;;;21.59;95.80;96696.09;4977060;28;20204;-72
2021/07/17 08:10:44;;;;;;;15.75;9.13;;;;;;;21.29;97.00;96703.38;4978816;28;20745;-71
2021/07/17 08:13:12;;;;;;;20.48;10.93;;;;;;;21.26;97.23;96698.47;4975672;28;20207;-72
2021/07/17 08:15:39;;;;;;;17.70;9.90;;;;;;;21.18;97.05;96704.19;4977787;28;20211;-70
2021/07/17 08:18:07;;;;;;;15.25;9.75;;;;;;;21.26;95.74;96703.84;4977100;28;20235;-72
2021/07/17 08:20:33;;;;;;;19.55;9.90;;;;;;;21.52;95.29;96698.06;4977170;28;20219;-69
2021/07/17 08:23:00;;;;;;;16.17;9.88;;;;;;;21.29;96.02;96713.28;4977841;28;20218;-72
2021/07/17 08:25:26;;;;;;;17.67;10.20;;;;;;;21.36;95.60;96708.63;4977505;28;20203;-72
2021/07/17 08:27:53;;;;;;;16.70;9.98;;;;;;;21.37;94.87;96711.06;4976401;28;20238;-69
2021/07/17 08:30:20;;;;;;;16.55;10.27;;;;;;;21.20;96.10;96706.63;4977576;28;20242;-71
2021/07/17 08:32:47;;;;;;;17.13;10.15;;;;;;;21.42;94.97;96720.06;4977248;28;20207;-72
2021/07/17 08:35:14;;;;;;;19.02;11.30;;;;;;;21.57;95.81;96717.75;4977330;28;20691;-72
2021/07/17 08:37:40;;;;;;;19.70;9.68;;;;;;;21.58;94.36;96713.22;4976638;28;20231;-71
2021/07/17 08:40:08;;;;;;;17.33;10.05;;;;;;;21.38;95.12;96720.75;4977540;28;20223;-72
2021/07/17 08:42:39;;;;;;;23.08;10.80;;;;;;;21.71;94.18;96713.78;4977719;28;20215;-71
2021/07/17 08:45:07;;;;;;;18.08;10.70;;;;;;;21.74;93.62;96712.50;4975712;28;20204;-72
2021/07/17 08:47:39;;;;;;;17.20;10.50;;;;;;;21.65;93.64;96700.50;4975681;28;20574;-72
2021/07/17 08:50:08;;;;;;;19.13;10.00;;;;;;;21.76;92.33;96694.31;4976934;28;20320;-72
2021/07/17 08:52:35;;;;;;;14.95;9.88;;;;;;;21.77;93.60;96701.31;4977246;28;20670;-72
2021/07/17 08:55:04;;;;;;;16.70;10.40;;;;;;;21.94;93.44;96702.22;4977093;28;20208;-72
2021/07/17 08:57:33;;;;;;;18.52;10.98;;;;;;;21.60;94.61;96698.53;4976825;28;20254;-72
2021/07/17 08:59:59;;;;;;;17.83;10.02;;;;;;;21.77;94.39;96695.94;4977729;28;20219;-71
2021/07/17 09:02:26;;;;;;;16.50;9.57;;;;;;;21.70;93.34;96705.97;4977138;28;20207;-71
2021/07/17 09:04:54;;;;;;;16.52;10.30;;;;;;;22.08;92.50;96699.03;4976798;28;20214;-72
2021/07/17 09:07:20;;;;;;;17.42;10.32;;;;;;;21.91;92.06;96702.69;4976270;28;20337;-69
2021/07/17 09:09:47;;;;;;;17.58;10.15;;;;;;;21.69;93.44;96704.34;4977032;28;20666;-70
2021/07/17 09:12:22;;;;;;;15.65;9.93;;;;;;;21.94;93.20;96699.53;4976944;28;20611;-72
2021/07/17 09:14:48;;;;;;;15.60;9.82;;;;;;;21.67;94.53;96696.53;4977218;28;20404;-71
2021/07/17 09:17:22;;;;;;;17.33;9.77;;;;;;;21.81;94.84;96692.53;4976139;28;20246;-72
2021/07/17 09:19:54;;;;;;;18.73;9.75;;;;;;;21.71;93.53;96699.56;4976115;28;20218;-72
2021/07/17 09:22:31;;;;;;;14.90;9.40;;;;;;;21.75;94.03;96692.66;4977880;28;20211;-72
2021/07/17 09:25:10;;;;;;;16.63;10.20;;;;;;;21.71;94.78;96694.19;4976302;28;20203;-71
2021/07/17 09:27:36;;;;;;;15.15;10.00;;;;;;;21.54;96.15;96690.59;4976958;28;20203;-71
2021/07/17 09:30:03;;;;;;;18.30;10.90;;;;;;;21.81;95.68;96694.44;4976773;28;20227;-70
2021/07/17 09:32:30;;;;;;;16.10;10.88;;;;;;;21.69;96.28;96690.91;4977026;28;20564;-70
2021/07/17 09:35:10;;;;;;;16.73;11.07;;;;;;;21.57;95.29;96692.81;4976155;28;20683;-72
2021/07/17 09:37:37;;;;;;;17.38;10.30;;;;;;;21.61;94.74;96686.75;4975492;28;20226;-71
2021/07/17 09:40:10;;;;;;;18.48;11.25;;;;;;;21.47;95.89;96681.81;4975647;28;20382;-70
2021/07/17 09:42:44;;;;;;;19.65;11.52;;;;;;;21.43;96.18;96689.53;4975912;28;20237;-71
2021/07/17 09:45:12;;;;;;;22.58;12.25;;;;;;;21.31;97.22;96690.56;4973157;28;20203;-71
2021/07/17 09:47:38;;;;;;;22.60;12.25;;;;;;;21.19;97.98;96687.03;4974737;28;20702;-70
2021/07/17 09:50:17;;;;;;;21.35;12.68;;;;;;;21.54;96.63;96693.28;4975725;28;20227;-71
2021/07/17 09:52:44;;;;;;;25.55;13.23;;;;;;;21.23;97.63;96698.94;4975787;28;20229;-71
2021/07/17 09:55:14;;;;;;;20.60;12.95;;;;;;;21.24;99.05;96702.44;4974767;28;20576;-72
2021/07/17 09:57:41;;;;;;;29.65;15.10;;;;;;;21.24;100.00;96697.88;4973913;28;20627;-72
2021/07/17 10:00:10;;;;;;;32.70;14.95;;;;;;;21.59;98.52;96696.09;4974995;28;20789;-69
2021/07/17 10:02:39;;;;;;;24.65;13.13;;;;;;;21.34;98.70;96692.75;4975343;28;20229;-70
2021/07/17 10:05:07;;;;;;;22.48;13.23;;;;;;;21.36;98.59;96696.03;4974234;28;20206;-72
2021/07/17 10:07:35;;;;;;;23.65;13.27;;;;;;;21.32;98.62;96689.53;4973772;28;20210;-71
2021/07/17 10:10:01;;;;;;;26.15;14.82;;;;;;;21.39;98.61;96690.22;4974588;28;21046;-71
2021/07/17 10:12:33;;;;;;;27.38;14.65;;;;;;;21.43;99.94;96689.53;4974603;28;20469;-69
2021/07/17 10:15:01;;;;;;;24.30;14.35;;;;;;;21.68;98.17;96683.94;4974343;28;20218;-71
2021/07/17 10:17:34;;;;;;;28.60;14.15;;;;;;;22.17;97.68;96682.34;4973738;28;20997;-71
2021/07/17 10:20:02;;;;;;;26.85;15.25;;;;;;;22.39;96.05;96680.66;4974947;28;20223;-72
2021/07/17 10:22:29;;;;;;;27.02;14.70;;;;;;;22.13;96.59;96680.34;4974261;28;20621;-70
2021/07/17 10:24:57;;;;;;;24.30;14.18;;;;;;;22.33;95.50;96678.91;4974984;28;20234;-70
2021/07/17 10:27:24;;;;;;;20.73;13.73;;;;;;;22.55;92.79;96681.75;4974006;28;20558;-72
2021/07/17 10:29:51;;;;;;;23.83;14.05;;;;;;;22.77;91.14;96675.44;4974152;28;20223;-70
2021/07/17 10:32:18;;;;;;;22.67;13.95;;;;;;;22.95;89.40;96669.84;4974190;28;20689;-72
2021/07/17 10:34:45;;;;;;;27.45;14.35;;;;;;;23.04;88.84;96668.41;4974821;28;20207;-71
2021/07/17 10:37:15;;;;;;;20.25;13.13;;;;;;;23.06;87.36;96661.75;4975148;28;20223;-69
2021/07/17 10:39:45;;;;;;;22.08;12.70;;;;;;;23.24;86.98;96658.00;4977325;28;20651;-69
2021/07/17 10:42:18;;;;;;;20.08;12.57;;;;;;;23.13;89.33;96661.56;4977878;28;20219;-71
2021/07/17 10:44:47;;;;;;;16.88;11.07;;;;;;;23.34;86.67;96657.13;4977958;28;20281;-72
2021/07/17 10:47:15;;;;;;;20.88;12.07;;;;;;;23.10;90.26;96652.13;4974352;28;20549;-72
2021/07/17 10:49:45;;;;;;;15.13;10.05;;;;;;;22.65;89.48;96647.81;4977541;28;20230;-69
2021/07/17 10:52:12;;;;;;;17.95;11.02;;;;;;;22.73;90.75;96647.44;4977109;28;20199;-71
2021/07/17 10:54:40;;;;;;;16.52;10.52;;;;;;;22.66;90.45;96649.47;4977977;28;20670;-72
2021/07/17 10:57:07;;;;;;;16.67;10.52;;;;;;;22.90;88.76;96654.47;4977672;28;20219;-70
2021/07/17 10:59:59;;;;;;;18.05;11.18;;;;;;;22.93;88.17;96653.97;4977942;28;20741;-71
2021/07/17 11:02:26;;;;;;;18.52;11.02;;;;;;;23.01;89.42;96658.16;4963435;28;20214;-72
2021/07/17 11:04:58;;;;;;;14.05;8.95;;;;;;;22.95;88.59;96648.34;4978164;28;20205;-72
2021/07/17 11:07:34;;;;;;;15.65;9.27;;;;;;;23.34;86.10;96640.97;4977557;28;20611;-72
2021/07/17 11:10:06;;;;;;;18.60;9.43;;;;;;;23.36;87.99;96643.41;4978087;28;21052;-71
2021/07/17 11:12:35;;;;;;;15.38;9.48;;;;;;;23.32;88.34;96637.69;4979452;28;20639;-72
2021/07/17 11:15:47;;;;;;;14.30;8.55;;;;;;;23.49;84.87;96649.25;4978459;28;20220;-72
2021/07/17 11:18:36;;;;;;;14.68;8.82;;;;;;;23.46;86.67;96648.94;4977458;28;20432;-70
2021/07/17 11:21:09;;;;;;;13.75;8.23;;;;;;;23.61;86.99;96647.28;4979124;28;20239;-72